Time;durP1;ratioP1;P1;durP2;ratioP2;P2;SDS_P1;SDS_P2;PMS_P1;PMS_P2;Temp;Humidity;BMP_temperature;BMP_pressure;BME280_temperature;BME280_humidity;BME280_pressure;Samples;Min_cycle;Max_cycle;Signal;HPM_P1;HPM_P2
2023/01/08 00:00:23;;;;;;;349.87;182.13;;;;;;;2.72;100.00;98949.42;2211782;81;21375;-82
2023/01/08 00:03:23;;;;;;;107.57;46.83;;;;;;;2.76;100.00;98947.45;2212092;81;20921;-83
2023/01/08 00:06:24;;;;;;;73.07;33.77;;;;;;;2.82;100.00;98947.73;2212250;81;20905;-84
2023/01/08 00:09:24;;;;;;;86.57;32.27;;;;;;;2.77;99.94;98942.78;2212098;81;20949;-82
2023/01/08 00:12:24;;;;;;;80.37;30.23;;;;;;;2.78;100.00;98944.13;2212247;81;20885;-83
2023/01/08 00:15:25;;;;;;;91.90;32.87;;;;;;;2.76;99.90;98939.72;2212193;81;21309;-83
2023/01/08 00:18:26;;;;;;;85.13;31.27;;;;;;;2.69;100.00;98937.28;2212145;81;20958;-82
2023/01/08 00:21:26;;;;;;;87.40;31.40;;;;;;;2.67;100.00;98934.16;2212219;81;20941;-83
2023/01/08 00:24:26;;;;;;;82.43;30.20;;;;;;;2.62;100.00;98931.80;2211515;81;21004;-83
2023/01/08 00:27:26;;;;;;;93.87;29.13;;;;;;;2.62;100.00;98934.37;2211667;81;20925;-82
2023/01/08 00:30:27;;;;;;;97.13;30.63;;;;;;;2.63;100.00;98929.69;2216763;80;20999;-83
2023/01/08 00:33:27;;;;;;;98.33;32.03;;;;;;;2.61;100.00;98931.32;2221573;80;20949;-84
2023/01/08 00:36:28;;;;;;;116.70;29.93;;;;;;;2.63;100.00;98928.00;2221053;80;20958;-82
2023/01/08 00:39:28;;;;;;;106.30;31.40;;;;;;;2.63;100.00;98929.69;2221595;80;20936;-81
2023/01/08 00:42:28;;;;;;;85.67;29.90;;;;;;;2.65;100.00;98928.06;2221870;80;21336;-83
2023/01/08 00:45:29;;;;;;;113.53;29.40;;;;;;;2.66;100.00;98932.41;2221370;80;20964;-83
2023/01/08 00:48:30;;;;;;;80.83;30.30;;;;;;;2.63;100.00;98923.25;2221466;80;21292;-82
2023/01/08 00:51:30;;;;;;;77.80;29.47;;;;;;;2.56;100.00;98910.47;2221707;80;21083;-81
2023/01/08 00:54:30;;;;;;;97.77;30.70;;;;;;;2.47;100.00;98907.08;2221878;80;20961;-81
2023/01/08 00:57:30;;;;;;;71.87;31.07;;;;;;;2.49;100.00;98903.28;2221998;80;21280;-84
2023/01/08 01:00:31;;;;;;;70.10;29.37;;;;;;;2.51;100.00;98910.27;2222040;80;21031;-83
2023/01/08 01:03:31;;;;;;;82.30;30.30;;;;;;;2.56;100.00;98906.60;2222163;80;20948;-84
2023/01/08 01:06:32;;;;;;;92.23;31.03;;;;;;;2.54;100.00;98903.95;2221879;80;21308;-82
2023/01/08 01:09:32;;;;;;;65.57;31.97;;;;;;;2.54;100.00;98894.05;2221965;80;20917;-83
2023/01/08 01:12:32;;;;;;;74.90;29.57;;;;;;;2.53;100.00;98894.46;2221980;80;20944;-82
2023/01/08 01:15:34;;;;;;;64.33;31.67;;;;;;;2.51;100.00;98885.78;2221946;80;20960;-83
2023/01/08 01:18:33;;;;;;;82.00;31.70;;;;;;;2.54;100.00;98888.50;2221754;80;20917;-82
2023/01/08 01:21:34;;;;;;;63.23;31.37;;;;;;;2.54;100.00;98885.92;2222267;80;20991;-83
2023/01/08 01:24:34;;;;;;;59.20;31.40;;;;;;;2.56;100.00;98882.13;2221940;80;21299;-82
2023/01/08 01:27:34;;;;;;;63.27;35.93;;;;;;;2.57;100.00;98872.29;2222083;80;21004;-82
2023/01/08 01:30:35;;;;;;;54.20;32.17;;;;;;;2.57;100.00;98873.58;2221673;80;21332;-82
2023/01/08 01:33:35;;;;;;;50.63;31.97;;;;;;;2.58;100.00;98874.45;2221910;80;20944;-82
2023/01/08 01:36:35;;;;;;;64.77;40.30;;;;;;;2.60;100.00;98881.47;2222132;80;20941;-82
2023/01/08 01:39:36;;;;;;;59.53;37.63;;;;;;;3.40;100.00;98862.47;2221898;80;21293;-82
2023/01/08 01:42:39;;;;;;;61.73;38.30;;;;;;;7.08;100.00;98849.80;2221925;80;20912;-82
2023/01/08 01:45:39;;;;;;;47.77;32.07;;;;;;;9.85;100.00;98843.82;2222175;80;20948;-83
2023/01/08 01:48:40;;;;;;;50.33;32.50;;;;;;;12.02;98.08;98832.69;2221899;80;21320;-82
2023/01/08 01:51:41;;;;;;;48.23;32.07;;;;;;;13.56;89.62;98822.72;2221935;80;20941;-82
2023/01/08 01:54:41;;;;;;;44.77;31.60;;;;;;;14.16;84.60;98820.90;2222260;80;20952;-82
2023/01/08 01:57:41;;;;;;;37.47;29.67;;;;;;;14.43;77.43;98814.70;2221832;80;20932;-82
2023/01/08 02:00:41;;;;;;;41.50;30.83;;;;;;;15.02;74.85;98808.30;2221818;80;21003;-82
2023/01/08 02:03:42;;;;;;;37.33;29.10;;;;;;;14.90;71.54;98819.76;2221928;80;21268;-82
2023/01/08 02:06:42;;;;;;;38.42;30.37;;;;;;;15.47;72.01;98816.28;2221630;80;20987;-82
2023/01/08 02:09:43;;;;;;;116.10;81.72;;;;;;;15.69;66.81;98810.46;2221898;80;21316;-81
2023/01/08 02:12:43;;;;;;;57.27;42.08;;;;;;;15.76;65.10;98805.13;2222046;80;20885;-82
2023/01/08 02:15:43;;;;;;;45.78;34.80;;;;;;;15.96;60.52;98796.16;2222035;80;21307;-83
2023/01/08 02:18:44;;;;;;;53.60;38.15;;;;;;;15.74;61.67;98791.11;2221972;80;20968;-83
2023/01/08 02:21:44;;;;;;;48.25;34.90;;;;;;;15.84;61.20;98790.13;2222108;80;21143;-82
2023/01/08 02:24:45;;;;;;;47.75;34.58;;;;;;;16.03;60.53;98779.41;2222091;80;20945;-83
2023/01/08 02:27:45;;;;;;;43.63;33.35;;;;;;;15.71;57.69;98784.56;2222113;80;20913;-82
2023/01/08 02:30:45;;;;;;;40.48;29.80;;;;;;;15.26;60.03;98780.51;2222030;80;21043;-83
2023/01/08 02:33:46;;;;;;;37.10;29.55;;;;;;;15.98;60.13;98781.22;2222195;80;20940;-81
2023/01/08 02:36:46;;;;;;;36.08;28.60;;;;;;;14.93;52.06;98786.89;2222243;80;20884;-81
2023/01/08 02:39:47;;;;;;;38.38;30.00;;;;;;;12.06;54.10;98789.54;2222148;80;21414;-82
2023/01/08 02:42:47;;;;;;;37.88;28.77;;;;;;;9.77;57.99;98793.30;2222020;80;20928;-81
2023/01/08 02:45:47;;;;;;;37.50;28.80;;;;;;;7.98;62.12;98790.05;2222308;80;20916;-83
2023/01/08 02:48:48;;;;;;;38.90;29.70;;;;;;;6.77;65.57;98794.91;2222211;80;20900;-81
2023/01/08 02:51:48;;;;;;;41.07;29.03;;;;;;;6.81;86.32;98794.14;2222482;80;20957;-83
2023/01/08 02:54:49;;;;;;;40.17;29.30;;;;;;;9.85;83.85;98790.38;2222388;80;20948;-83
2023/01/08 02:57:49;;;;;;;40.13;27.43;;;;;;;11.87;76.46;98770.69;2222245;80;21344;-83
2023/01/08 03:00:49;;;;;;;46.87;33.03;;;;;;;13.01;70.23;98761.95;2222169;80;20972;-83
2023/01/08 03:03:50;;;;;;;38.47;29.70;;;;;;;14.13;66.76;98756.59;2222188;80;20924;-83
2023/01/08 03:06:50;;;;;;;37.30;28.60;;;;;;;14.27;61.33;98764.84;2222260;80;20889;-84
2023/01/08 03:09:51;;;;;;;37.90;28.50;;;;;;;14.55;63.79;98761.68;2222068;80;20956;-84
2023/01/08 03:12:51;;;;;;;38.10;26.87;;;;;;;14.95;59.54;98766.72;2221980;80;20979;-84
2023/01/08 03:15:51;;;;;;;39.40;28.20;;;;;;;14.98;53.89;98761.45;2221974;80;21314;-83
2023/01/08 03:18:52;;;;;;;32.70;26.75;;;;;;;15.07;60.29;98760.50;2221766;80;20916;-84
2023/01/08 03:21:52;;;;;;;32.65;24.95;;;;;;;15.83;59.70;98756.80;2221934;80;20943;-84
